Belmont, Mississippi
Current Conditions -  °F | °C
As of 7:53 AM on Sunday 21 Dec 2014 (Local Time) from KTUP Reporting Station
Clear Clear  
Wind Chill: 26°   Ceiling: Unl
Heat Index: 32°   Visibility: 7mi
Dew Point: 29°   Wind: 7mph
Humidity: 88%   Direction: 30°NNE
Pressure: 30.19"   Gusts: NA
Location:  34.51°N, 88.21°W
Report Text: KTUP 211353Z 03006KT 7SM CLR 00/M02 A3019 RMK AO2 SLP226 T00001017
Loading
Personal Weather Stations






























Interactive Weather Map New forecast layout! Learn more

10-Day Weather Forecast

Advertisements
Track Severe Weather on mobile